Time;durP1;ratioP1;P1;durP2;ratioP2;P2;SDS_P1;SDS_P2;PMS_P1;PMS_P2;Temp;Humidity;BMP_temperature;BMP_pressure;BME280_temperature;BME280_humidity;BME280_pressure;Samples;Min_cycle;Max_cycle;Signal;HPM_P1;HPM_P2
2023/04/09 00:01:44;;;;;;;26.07;15.30;;;7.50;99.90;;;;;;5074416;28;20454;-62
2023/04/09 00:04:12;;;;;;;28.13;15.90;;;7.50;99.90;;;;;;5074293;28;20439;-62
2023/04/09 00:06:39;;;;;;;26.77;14.40;;;7.50;99.90;;;;;;5074532;28;20467;-61
2023/04/09 00:09:06;;;;;;;25.63;13.70;;;7.50;99.90;;;;;;5074152;28;20440;-61
2023/04/09 00:11:33;;;;;;;22.10;12.70;;;7.50;99.90;;;;;;5074281;28;20455;-62
2023/04/09 00:13:59;;;;;;;22.93;13.77;;;7.40;99.90;;;;;;5078353;28;20430;-62
2023/04/09 00:16:26;;;;;;;22.93;14.00;;;7.50;99.90;;;;;;5077614;28;20462;-61
2023/04/09 00:18:53;;;;;;;26.50;13.80;;;7.40;99.90;;;;;;5078266;28;20475;-59
2023/04/09 00:21:23;;;;;;;24.97;12.97;;;7.40;99.90;;;;;;5078054;28;20464;-62
2023/04/09 00:23:50;;;;;;;27.67;14.57;;;7.40;99.90;;;;;;5078693;28;20469;-59
2023/04/09 00:26:20;;;;;;;27.47;15.30;;;7.50;99.90;;;;;;5078769;28;20482;-62
2023/04/09 00:28:48;;;;;;;26.53;15.20;;;7.40;99.90;;;;;;5079281;28;20430;-61
2023/04/09 00:31:18;;;;;;;23.10;13.80;;;7.40;99.90;;;;;;5078328;28;20615;-60
2023/04/09 00:33:45;;;;;;;25.60;14.53;;;7.30;99.90;;;;;;5078430;28;20466;-61
2023/04/09 00:36:12;;;;;;;27.93;15.37;;;7.30;99.90;;;;;;5079171;28;20465;-60
2023/04/09 00:38:42;;;;;;;29.57;17.87;;;7.30;99.90;;;;;;5078283;28;20442;-59
2023/04/09 00:41:12;;;;;;;21.90;14.60;;;7.20;99.90;;;;;;5077963;28;20478;-60
2023/04/09 00:43:39;;;;;;;21.47;12.90;;;7.20;99.90;;;;;;5077436;28;20466;-62
2023/04/09 00:46:06;;;;;;;24.40;14.13;;;7.20;99.90;;;;;;5078243;28;20459;-61
2023/04/09 00:48:33;;;;;;;30.73;15.20;;;7.20;99.90;;;;;;5077791;28;20449;-60
2023/04/09 00:51:00;;;;;;;28.70;15.30;;;7.20;99.90;;;;;;5077926;28;20463;-60
2023/04/09 00:53:30;;;;;;;26.00;15.90;;;7.20;99.90;;;;;;5077989;28;20506;-61
2023/04/09 00:55:58;;;;;;;26.40;15.80;;;7.10;99.90;;;;;;5077942;28;20481;-61
2023/04/09 00:58:26;;;;;;;30.00;15.60;;;7.00;99.90;;;;;;5077483;28;20443;-62
2023/04/09 01:00:54;;;;;;;29.90;14.70;;;7.00;99.90;;;;;;5077767;28;20467;-61
2023/04/09 01:03:21;;;;;;;30.63;16.27;;;7.00;99.90;;;;;;5077850;28;20537;-61
2023/04/09 01:05:56;;;;;;;28.23;14.50;;;7.00;99.90;;;;;;5077530;28;20474;-60
2023/04/09 01:08:35;;;;;;;27.50;14.40;;;7.00;99.90;;;;;;5077509;28;20437;-60
2023/04/09 01:11:14;;;;;;;28.43;13.40;;;6.90;99.90;;;;;;5077280;28;20490;-61
2023/04/09 01:13:49;;;;;;;27.23;16.53;;;7.60;99.90;;;;;;5077635;28;20498;-61
2023/04/09 01:16:18;;;;;;;26.30;14.33;;;6.90;99.90;;;;;;5078646;28;20474;-61
2023/04/09 01:18:52;;;;;;;28.57;16.20;;;6.90;99.90;;;;;;5078595;28;20438;-61
2023/04/09 01:21:23;;;;;;;20.97;13.83;;;6.80;99.90;;;;;;5078660;28;20451;-56
2023/04/09 01:24:00;;;;;;;32.20;15.50;;;6.80;99.90;;;;;;5078775;28;20428;-60
2023/04/09 01:26:44;;;;;;;21.93;13.57;;;6.80;99.90;;;;;;5078863;28;20483;-61
2023/04/09 01:29:15;;;;;;;29.73;15.33;;;6.80;99.90;;;;;;5078589;28;20447;-60
2023/04/09 01:31:44;;;;;;;26.50;15.63;;;6.80;99.90;;;;;;5078474;28;20987;-61
2023/04/09 01:34:14;;;;;;;29.47;15.60;;;6.80;99.90;;;;;;5078273;28;20419;-59
2023/04/09 01:36:43;;;;;;;28.57;17.43;;;6.80;99.90;;;;;;5077564;28;20578;-61
2023/04/09 01:39:10;;;;;;;28.77;16.90;;;6.70;99.90;;;;;;5077274;28;20451;-58
2023/04/09 01:41:41;;;;;;;25.43;15.70;;;6.70;99.90;;;;;;5076513;28;20467;-61
2023/04/09 01:44:11;;;;;;;34.87;15.80;;;6.70;99.90;;;;;;5076336;28;20500;-59
2023/04/09 01:46:41;;;;;;;31.17;16.83;;;6.70;99.90;;;;;;5076822;28;20491;-60
2023/04/09 01:49:09;;;;;;;27.17;14.40;;;6.70;99.90;;;;;;5076953;28;20454;-62
2023/04/09 01:51:37;;;;;;;28.57;14.27;;;6.70;99.90;;;;;;5076084;28;20507;-61
2023/04/09 01:54:04;;;;;;;30.43;15.10;;;6.70;99.90;;;;;;5076734;28;20427;-60
2023/04/09 01:56:40;;;;;;;22.00;13.37;;;6.70;99.90;;;;;;5075988;28;20481;-61
2023/04/09 01:59:07;;;;;;;28.73;16.10;;;6.70;99.90;;;;;;5076183;28;20482;-61
2023/04/09 02:01:38;;;;;;;36.87;16.97;;;6.70;99.90;;;;;;5076743;28;20435;-61
2023/04/09 02:04:14;;;;;;;37.80;17.57;;;6.60;99.90;;;;;;5076412;28;20463;-61
2023/04/09 02:06:44;;;;;;;27.43;14.90;;;6.60;99.90;;;;;;5076181;28;20438;-61
2023/04/09 02:09:20;;;;;;;34.63;16.47;;;6.60;99.90;;;;;;5075699;28;20431;-61
2023/04/09 02:11:49;;;;;;;29.07;16.97;;;6.60;99.90;;;;;;5075911;28;20474;-61
2023/04/09 02:14:22;;;;;;;28.87;16.40;;;6.60;99.90;;;;;;5075918;28;20466;-63
2023/04/09 02:16:49;;;;;;;29.10;16.00;;;6.20;99.90;;;;;;5076895;28;20419;-61
2023/04/09 02:19:17;;;;;;;30.13;16.57;;;6.50;99.90;;;;;;5077116;28;20419;-58
2023/04/09 02:21:44;;;;;;;30.70;18.73;;;6.50;99.90;;;;;;5076217;28;20474;-60
2023/04/09 02:24:11;;;;;;;29.10;15.90;;;6.50;99.90;;;;;;5076623;28;20443;-59
2023/04/09 02:26:39;;;;;;;27.60;15.10;;;6.60;99.90;;;;;;5076408;28;20428;-61
2023/04/09 02:29:06;;;;;;;28.50;14.73;;;6.50;99.90;;;;;;5076184;28;20454;-59
2023/04/09 02:31:33;;;;;;;30.57;16.60;;;6.50;99.90;;;;;;5075886;28;20471;-61
2023/04/09 02:34:00;;;;;;;25.10;14.27;;;6.50;99.90;;;;;;5075281;28;20494;-61
2023/04/09 02:36:28;;;;;;;30.37;16.03;;;6.50;99.90;;;;;;5074877;28;20447;-61
2023/04/09 02:38:55;;;;;;;27.50;14.70;;;6.40;99.90;;;;;;5075678;28;20455;-61
2023/04/09 02:41:23;;;;;;;30.77;17.03;;;6.50;99.90;;;;;;5075587;28;20530;-60
2023/04/09 02:43:50;;;;;;;25.97;15.57;;;6.50;99.90;;;;;;5075175;28;20467;-62
2023/04/09 02:46:17;;;;;;;28.07;15.10;;;6.40;99.90;;;;;;5075218;28;20439;-62
2023/04/09 02:48:44;;;;;;;28.87;16.27;;;6.40;99.90;;;;;;5074936;28;20467;-59
2023/04/09 02:51:11;;;;;;;31.80;16.87;;;6.50;99.90;;;;;;5075977;28;20455;-60
2023/04/09 02:53:40;;;;;;;27.83;15.37;;;6.40;99.90;;;;;;5075365;28;20553;-60
2023/04/09 02:56:07;;;;;;;24.63;15.37;;;6.40;99.90;;;;;;5075761;28;20444;-61
2023/04/09 02:58:33;;;;;;;23.57;14.27;;;6.40;99.90;;;;;;5075425;28;20502;-61
2023/04/09 03:01:00;;;;;;;30.50;16.33;;;6.40;99.90;;;;;;5075675;28;20435;-57
2023/04/09 03:03:27;;;;;;;25.23;14.90;;;6.40;99.90;;;;;;5075205;28;20471;-61
2023/04/09 03:05:54;;;;;;;29.50;16.20;;;6.30;99.90;;;;;;5075388;28;20443;-61
2023/04/09 03:08:21;;;;;;;28.77;15.73;;;6.30;99.90;;;;;;5075534;28;20479;-59
2023/04/09 03:10:49;;;;;;;26.43;15.23;;;6.30;99.90;;;;;;5075083;28;20443;-60
2023/04/09 03:13:16;;;;;;;33.90;17.70;;;6.30;99.90;;;;;;5074774;28;20487;-58
2023/04/09 03:15:43;;;;;;;28.97;17.17;;;6.30;99.90;;;;;;5074574;28;20467;-62
2023/04/09 03:18:10;;;;;;;32.93;16.17;;;6.30;99.90;;;;;;5074967;28;20462;-59
2023/04/09 03:20:38;;;;;;;26.60;15.17;;;6.20;99.90;;;;;;5075174;28;20447;-60
2023/04/09 03:23:05;;;;;;;33.83;17.33;;;6.20;99.90;;;;;;5074900;28;20574;-61
2023/04/09 03:25:31;;;;;;;33.13;16.80;;;6.30;99.90;;;;;;5074761;28;20470;-61
2023/04/09 03:28:00;;;;;;;29.60;15.90;;;6.30;99.90;;;;;;5074630;28;20459;-61
2023/04/09 03:30:27;;;;;;;32.20;15.87;;;6.30;99.90;;;;;;5075155;28;20458;-60
2023/04/09 03:32:53;;;;;;;30.03;15.77;;;6.20;99.90;;;;;;5074635;28;20490;-61
2023/04/09 03:35:20;;;;;;;32.37;16.50;;;6.20;99.90;;;;;;5075018;28;20463;-62
2023/04/09 03:37:48;;;;;;;31.37;16.57;;;6.20;99.90;;;;;;5075145;28;20431;-63
2023/04/09 03:40:15;;;;;;;29.13;15.17;;;6.20;99.90;;;;;;5075309;28;20411;-60
2023/04/09 03:42:42;;;;;;;24.20;14.93;;;6.20;99.90;;;;;;5075707;28;20439;-61
2023/04/09 03:45:11;;;;;;;27.50;16.10;;;6.20;99.90;;;;;;5075491;28;20440;-60
2023/04/09 03:47:38;;;;;;;40.83;18.30;;;6.20;99.90;;;;;;5074534;28;20439;-60
2023/04/09 03:50:06;;;;;;;36.57;17.27;;;6.20;99.90;;;;;;5074832;28;20458;-61
2023/04/09 03:52:32;;;;;;;25.00;15.30;;;6.20;99.90;;;;;;5074362;28;20478;-60
2023/04/09 03:54:59;;;;;;;25.30;14.13;;;6.20;99.90;;;;;;5074719;28;20443;-61
2023/04/09 03:57:26;;;;;;;28.53;15.10;;;6.20;99.90;;;;;;5074415;28;20443;-61
2023/04/09 03:59:53;;;;;;;27.87;16.60;;;6.20;99.90;;;;;;5074999;28;20439;-61
2023/04/09 04:02:25;;;;;;;33.70;16.53;;;6.20;99.90;;;;;;5074618;28;20447;-60
2023/04/09 04:04:52;;;;;;;25.10;15.43;;;6.20;99.90;;;;;;5075072;28;20534;-58
2023/04/09 04:07:19;;;;;;;24.20;14.60;;;6.20;99.90;;;;;;5074931;28;20450;-62
2023/04/09 04:09:46;;;;;;;33.33;17.63;;;6.30;99.90;;;;;;5075398;28;20562;-60
2023/04/09 04:12:16;;;;;;;35.83;16.50;;;6.30;99.90;;;;;;5075559;28;20950;-57
2023/04/09 04:14:53;;;;;;;26.33;15.67;;;6.20;99.90;;;;;;5075389;28;20455;-57
2023/04/09 04:17:21;;;;;;;24.37;14.93;;;6.30;99.90;;;;;;5075674;28;20423;-60
2023/04/09 04:19:51;;;;;;;29.30;15.57;;;6.20;99.90;;;;;;5075132;28;20467;-61
2023/04/09 04:22:21;;;;;;;26.20;13.77;;;6.20;99.90;;;;;;5074856;28;20459;-59
2023/04/09 04:24:47;;;;;;;31.77;16.97;;;6.10;99.90;;;;;;5074926;28;20622;-54
2023/04/09 04:27:18;;;;;;;28.77;16.23;;;6.10;99.90;;;;;;5075744;28;20443;-59
2023/04/09 04:29:45;;;;;;;32.33;16.03;;;6.00;99.90;;;;;;5075533;28;20467;-58
2023/04/09 04:32:12;;;;;;;24.03;13.77;;;6.00;99.90;;;;;;5074823;28;20776;-61
2023/04/09 04:34:40;;;;;;;30.13;15.30;;;6.00;99.90;;;;;;5075061;28;20494;-60
2023/04/09 04:37:07;;;;;;;32.53;16.23;;;5.90;99.90;;;;;;5075349;28;20475;-58
2023/04/09 04:39:43;;;;;;;28.70;15.90;;;5.80;99.90;;;;;;5074222;28;20490;-60
2023/04/09 04:42:09;;;;;;;28.93;15.40;;;5.80;99.90;;;;;;5075472;28;20431;-56
2023/04/09 04:44:36;;;;;;;30.70;15.60;;;5.80;99.90;;;;;;5074300;28;20486;-61
2023/04/09 04:47:03;;;;;;;30.03;14.87;;;5.70;99.90;;;;;;5074382;28;20434;-60
2023/04/09 04:49:30;;;;;;;30.87;14.57;;;5.70;99.90;;;;;;5074446;28;20463;-59
2023/04/09 04:52:09;;;;;;;25.67;15.53;;;5.60;99.90;;;;;;5074068;28;20432;-57
2023/04/09 04:54:35;;;;;;;32.37;16.07;;;5.60;99.90;;;;;;5074133;28;20490;-60
2023/04/09 04:57:08;;;;;;;30.03;17.07;;;5.50;99.90;;;;;;5074020;28;20439;-60
2023/04/09 04:59:39;;;;;;;29.20;16.40;;;5.40;99.90;;;;;;5077188;28;20464;-59
2023/04/09 05:02:06;;;;;;;26.37;14.63;;;5.40;99.90;;;;;;5078038;28;20412;-58
2023/04/09 05:04:33;;;;;;;29.30;16.37;;;5.50;99.90;;;;;;5077963;28;20447;-60
2023/04/09 05:07:04;;;;;;;30.20;14.67;;;5.40;99.90;;;;;;5078471;28;20424;-60
2023/04/09 05:09:31;;;;;;;35.10;15.07;;;5.40;99.90;;;;;;5077904;28;20467;-60
2023/04/09 05:11:58;;;;;;;29.30;14.97;;;5.40;99.90;;;;;;5077659;28;20459;-59
2023/04/09 05:14:25;;;;;;;35.73;17.83;;;5.40;99.90;;;;;;5077645;28;20519;-61
2023/04/09 05:16:52;;;;;;;31.90;16.57;;;5.40;99.90;;;;;;5077447;28;20454;-59
2023/04/09 05:19:21;;;;;;;29.43;14.70;;;5.50;99.90;;;;;;5077626;28;20471;-60
2023/04/09 05:21:49;;;;;;;30.47;17.37;;;5.50;99.90;;;;;;5077493;28;20969;-61
2023/04/09 05:24:17;;;;;;;30.10;15.70;;;5.50;99.90;;;;;;5078105;28;20462;-57
2023/04/09 05:26:44;;;;;;;36.87;16.63;;;5.40;99.90;;;;;;5078560;28;20431;-59
2023/04/09 05:29:11;;;;;;;29.07;13.87;;;5.50;99.90;;;;;;5078431;28;20448;-58
2023/04/09 05:31:41;;;;;;;27.57;13.73;;;5.50;99.90;;;;;;5077594;28;20451;-59
2023/04/09 05:34:08;;;;;;;36.17;16.97;;;5.50;99.90;;;;;;5077436;28;20459;-57
2023/04/09 05:36:35;;;;;;;35.97;17.87;;;5.50;99.90;;;;;;5077802;28;20477;-56
2023/04/09 05:39:04;;;;;;;29.60;15.03;;;5.60;99.90;;;;;;5077364;28;20454;-62
2023/04/09 05:41:32;;;;;;;30.70;15.07;;;5.60;99.90;;;;;;5076968;28;20447;-63
2023/04/09 05:43:59;;;;;;;30.00;15.73;;;5.60;99.90;;;;;;5077337;28;20435;-62
2023/04/09 05:46:26;;;;;;;30.40;13.77;;;5.70;99.90;;;;;;5076874;28;20488;-60
2023/04/09 05:48:53;;;;;;;33.47;16.97;;;5.70;99.90;;;;;;5076588;28;20431;-61
2023/04/09 05:51:21;;;;;;;37.47;16.30;;;5.70;99.90;;;;;;5076435;28;20494;-61
2023/04/09 05:53:48;;;;;;;37.67;16.87;;;5.60;99.90;;;;;;5076857;28;20475;-60
2023/04/09 05:56:18;;;;;;;31.63;17.23;;;5.60;99.90;;;;;;5076810;28;20542;-61
2023/04/09 05:58:46;;;;;;;34.53;15.37;;;5.50;99.90;;;;;;5077416;28;20439;-61
2023/04/09 06:01:14;;;;;;;30.83;16.70;;;5.60;99.90;;;;;;5077002;28;20462;-63
2023/04/09 06:03:41;;;;;;;35.43;17.20;;;5.70;99.90;;;;;;5076471;28;20466;-61
2023/04/09 06:06:10;;;;;;;31.90;16.87;;;5.70;99.90;;;;;;5076083;28;20490;-62
2023/04/09 06:08:37;;;;;;;28.70;14.43;;;5.70;99.90;;;;;;5076754;28;20447;-58
2023/04/09 06:11:06;;;;;;;33.90;16.93;;;5.70;99.90;;;;;;5076301;28;20494;-60
2023/04/09 06:13:36;;;;;;;33.47;18.47;;;5.70;99.90;;;;;;5076607;28;20474;-61
2023/04/09 06:16:06;;;;;;;33.03;17.23;;;5.80;99.90;;;;;;5076336;28;20472;-59
2023/04/09 06:18:36;;;;;;;33.90;17.70;;;5.80;99.90;;;;;;5076323;28;20467;-61
2023/04/09 06:21:04;;;;;;;37.67;16.20;;;5.90;99.90;;;;;;5076814;28;20489;-61
2023/04/09 06:23:30;;;;;;;34.27;17.37;;;5.90;99.90;;;;;;5077091;28;20427;-61
2023/04/09 06:25:57;;;;;;;45.00;19.13;;;6.00;99.90;;;;;;5076853;28;20451;-60
2023/04/09 06:28:25;;;;;;;35.80;17.37;;;6.10;99.90;;;;;;5077015;28;20451;-59
2023/04/09 06:30:58;;;;;;;36.50;18.63;;;6.20;99.90;;;;;;5076979;28;20482;-62
2023/04/09 06:33:26;;;;;;;36.57;17.17;;;6.30;99.90;;;;;;5077387;28;20506;-60
2023/04/09 06:35:53;;;;;;;35.17;19.40;;;6.40;99.90;;;;;;5077304;28;20471;-62
2023/04/09 06:38:20;;;;;;;40.07;17.30;;;6.50;99.90;;;;;;5076973;28;20435;-61
2023/04/09 06:40:50;;;;;;;31.20;17.13;;;6.60;99.90;;;;;;5076184;28;20483;-62
2023/04/09 06:43:17;;;;;;;45.70;17.97;;;6.70;99.90;;;;;;5076397;28;20547;-61
2023/04/09 06:45:44;;;;;;;36.60;16.90;;;6.80;99.90;;;;;;5075890;28;20509;-61
2023/04/09 06:48:14;;;;;;;37.97;17.67;;;6.80;99.90;;;;;;5076090;28;20427;-61
2023/04/09 06:50:45;;;;;;;38.00;20.80;;;6.90;99.90;;;;;;5076084;28;20511;-62
2023/04/09 06:53:12;;;;;;;42.70;18.87;;;7.00;99.90;;;;;;5075416;28;20478;-61
2023/04/09 06:55:40;;;;;;;42.53;20.23;;;7.10;99.90;;;;;;5075375;28;20490;-61
2023/04/09 06:58:07;;;;;;;30.80;17.93;;;7.20;99.90;;;;;;5075873;28;20424;-62
2023/04/09 07:00:34;;;;;;;35.90;18.80;;;7.20;99.90;;;;;;5075312;28;20458;-61
2023/04/09 07:03:01;;;;;;;37.73;18.70;;;7.30;99.90;;;;;;5075230;28;20443;-61
2023/04/09 07:05:29;;;;;;;38.73;19.90;;;7.40;99.90;;;;;;5075718;28;20437;-60
2023/04/09 07:08:00;;;;;;;39.30;19.63;;;7.60;99.90;;;;;;5075122;28;20444;-62
2023/04/09 07:10:27;;;;;;;38.60;18.70;;;7.70;99.90;;;;;;5074971;28;20454;-61
2023/04/09 07:12:54;;;;;;;35.97;17.97;;;7.80;99.90;;;;;;5075924;28;20458;-59
2023/04/09 07:15:21;;;;;;;34.47;19.33;;;7.90;99.90;;;;;;5074995;28;20479;-59
2023/04/09 07:17:50;;;;;;;35.90;18.50;;;8.00;99.90;;;;;;5074854;28;20447;-61
2023/04/09 07:20:17;;;;;;;36.17;20.03;;;8.10;99.90;;;;;;5075432;28;20507;-61
2023/04/09 07:22:44;;;;;;;36.20;17.77;;;8.20;99.90;;;;;;5074777;28;20447;-62
2023/04/09 07:25:13;;;;;;;33.20;17.83;;;8.40;99.90;;;;;;5075600;28;20450;-62
2023/04/09 07:27:46;;;;;;;36.80;18.73;;;8.60;99.90;;;;;;5074705;28;20482;-62
2023/04/09 07:30:12;;;;;;;33.90;17.67;;;8.70;99.90;;;;;;5074971;28;20457;-60
2023/04/09 07:32:41;;;;;;;37.47;19.43;;;8.80;99.90;;;;;;5075089;28;20495;-57
2023/04/09 07:35:10;;;;;;;41.43;22.20;;;9.10;99.90;;;;;;5074738;28;20483;-61
2023/04/09 07:37:37;;;;;;;36.63;18.80;;;9.20;99.90;;;;;;5074721;28;20472;-61
2023/04/09 07:40:04;;;;;;;33.87;17.97;;;9.30;99.90;;;;;;5074499;28;20450;-62
2023/04/09 07:42:33;;;;;;;33.73;18.20;;;9.30;99.90;;;;;;5074280;28;20467;-62
2023/04/09 07:45:06;;;;;;;34.77;18.53;;;9.40;99.90;;;;;;5074298;28;20439;-61
2023/04/09 07:47:33;;;;;;;36.13;18.93;;;9.60;99.90;;;;;;5074598;28;20541;-61
2023/04/09 07:50:00;;;;;;;38.33;17.63;;;9.70;99.90;;;;;;5074564;28;20474;-61
2023/04/09 07:52:27;;;;;;;36.50;17.77;;;9.70;99.90;;;;;;5074452;28;20475;-63
2023/04/09 07:54:53;;;;;;;39.60;18.90;;;9.90;99.90;;;;;;5074316;28;20534;-61
2023/04/09 07:57:21;;;;;;;35.90;18.97;;;10.10;99.90;;;;;;5074083;28;20501;-60
2023/04/09 07:59:56;;;;;;;33.80;18.07;;;10.20;99.90;;;;;;5073989;28;20458;-57
2023/04/09 08:02:23;;;;;;;32.90;17.67;;;10.50;99.90;;;;;;5075456;28;20961;-61
2023/04/09 08:04:50;;;;;;;29.47;16.73;;;10.70;99.90;;;;;;5075729;28;20443;-61
2023/04/09 08:07:17;;;;;;;30.13;17.60;;;10.80;99.90;;;;;;5076161;28;20507;-61
2023/04/09 08:09:44;;;;;;;32.50;16.93;;;10.80;99.90;;;;;;5076468;28;20459;-61
2023/04/09 08:12:11;;;;;;;25.13;15.47;;;11.40;99.90;;;;;;5076195;28;20466;-59
2023/04/09 08:14:43;;;;;;;31.43;17.17;;;12.60;99.90;;;;;;5076210;28;20463;-61
2023/04/09 08:17:11;;;;;;;32.43;16.57;;;13.30;99.90;;;;;;5076600;28;20471;-61
2023/04/09 08:19:40;;;;;;;26.57;15.63;;;13.50;99.90;;;;;;5075061;28;20427;-61
2023/04/09 08:22:07;;;;;;;26.90;15.43;;;14.40;99.90;;;;;;5073257;28;20458;-62
2023/04/09 08:24:34;;;;;;;25.33;16.30;;;15.70;99.90;;;;;;5074116;28;20424;-62
2023/04/09 08:27:01;;;;;;;27.47;17.60;;;16.80;99.90;;;;;;5074797;28;20442;-58
2023/04/09 08:29:30;;;;;;;28.43;17.80;;;17.40;99.90;;;;;;5075197;28;20507;-61
2023/04/09 08:31:57;;;;;;;24.07;16.23;;;17.90;99.90;;;;;;5072944;28;20423;-62
2023/04/09 08:34:27;;;;;;;26.50;18.77;;;18.10;99.90;;;;;;5075575;28;20912;-61
2023/04/09 08:36:57;;;;;;;25.73;16.97;;;17.90;99.70;;;;;;5079235;28;20427;-61
2023/04/09 08:39:24;;;;;;;29.90;18.03;;;17.40;99.90;;;;;;5079672;28;20439;-60
2023/04/09 08:41:52;;;;;;;31.83;17.60;;;16.70;99.90;;;;;;5075695;28;20447;-61
2023/04/09 08:44:20;;;;;;;27.60;17.40;;;16.10;99.90;;;;;;5078650;28;20839;-62
2023/04/09 08:46:47;;;;;;;26.13;17.60;;;15.60;99.90;;;;;;5078221;28;20430;-59
2023/04/09 08:49:16;;;;;;;32.53;17.37;;;15.20;99.90;;;;;;5078618;28;20439;-60
2023/04/09 08:51:47;;;;;;;31.47;17.63;;;14.60;99.90;;;;;;5079233;28;20438;-60
2023/04/09 08:54:15;;;;;;;26.93;16.80;;;14.20;99.90;;;;;;5078873;28;20494;-61
2023/04/09 08:56:45;;;;;;;28.57;17.37;;;14.50;99.90;;;;;;5079337;28;20477;-61
2023/04/09 08:59:15;;;;;;;25.43;15.67;;;15.00;99.90;;;;;;5077372;28;20426;-58
2023/04/09 09:01:46;;;;;;;27.33;16.80;;;15.20;99.90;;;;;;5078936;28;20483;-61
2023/04/09 09:04:13;;;;;;;23.97;14.60;;;15.70;99.90;;;;;;5078006;28;20498;-62
2023/04/09 09:06:44;;;;;;;24.23;15.07;;;16.20;99.90;;;;;;5078595;28;20431;-63
2023/04/09 09:09:17;;;;;;;22.50;15.30;;;16.70;99.90;;;;;;5078248;28;20422;-62
2023/04/09 09:11:46;;;;;;;21.60;14.87;;;17.40;99.90;;;;;;5078798;28;20447;-63
2023/04/09 09:14:14;;;;;;;22.70;14.90;;;18.00;99.90;;;;;;5077007;28;20499;-61
2023/04/09 09:16:42;;;;;;;28.47;16.57;;;18.40;98.50;;;;;;5078629;28;20443;-60
2023/04/09 09:19:09;;;;;;;22.80;14.80;;;18.80;97.20;;;;;;5078305;28;20459;-60
2023/04/09 09:21:37;;;;;;;26.60;18.37;;;19.10;95.60;;;;;;5077216;28;20431;-62
2023/04/09 09:24:17;;;;;;;23.80;14.87;;;19.60;94.00;;;;;;5077709;28;20474;-61
2023/04/09 09:26:44;;;;;;;21.97;15.63;;;20.30;91.20;;;;;;5078127;28;20437;-59
2023/04/09 09:29:13;;;;;;;23.17;15.90;;;20.20;88.50;;;;;;5077967;28;20478;-61
2023/04/09 09:31:49;;;;;;;25.90;15.17;;;20.30;90.20;;;;;;5077419;28;20952;-62
2023/04/09 09:34:17;;;;;;;29.17;16.33;;;20.30;87.50;;;;;;5075229;28;20487;-61
2023/04/09 09:36:44;;;;;;;25.03;15.97;;;20.50;85.40;;;;;;5076704;28;20447;-62
2023/04/09 09:39:12;;;;;;;18.63;14.03;;;20.50;83.70;;;;;;5077393;28;20478;-61
2023/04/09 09:41:41;;;;;;;22.30;14.90;;;20.50;83.20;;;;;;5078107;28;20550;-62
2023/04/09 09:44:10;;;;;;;20.50;15.30;;;20.60;82.40;;;;;;5077555;28;20530;-63
2023/04/09 09:46:39;;;;;;;25.23;16.10;;;20.90;81.50;;;;;;5077545;28;20447;-61
2023/04/09 09:49:06;;;;;;;22.33;16.20;;;20.80;78.90;;;;;;5078151;28;20516;-62
2023/04/09 09:51:36;;;;;;;21.00;14.63;;;21.10;79.50;;;;;;5077901;28;20423;-62
2023/04/09 09:54:04;;;;;;;24.10;17.95;;;21.30;78.00;;;;;;5078185;28;20453;-59
2023/04/09 09:56:34;;;;;;;22.93;15.97;;;21.50;77.10;;;;;;5077139;28;20459;-61
2023/04/09 09:59:19;;;;;;;22.83;16.60;;;21.70;77.40;;;;;;5076900;28;20467;-62
2023/04/09 10:01:47;;;;;;;26.03;17.60;;;21.90;74.90;;;;;;5076188;28;20467;-61
2023/04/09 10:04:16;;;;;;;26.97;17.57;;;21.80;73.10;;;;;;5070773;28;20478;-63
2023/04/09 10:06:44;;;;;;;25.83;16.20;;;21.70;73.00;;;;;;5076233;28;20443;-62
2023/04/09 10:09:12;;;;;;;21.00;16.47;;;21.70;73.10;;;;;;5076363;28;20475;-61
2023/04/09 10:11:42;;;;;;;22.10;15.67;;;21.70;73.70;;;;;;5073657;28;20446;-63
2023/04/09 10:14:10;;;;;;;21.83;15.97;;;21.50;74.80;;;;;;5076375;28;20469;-62
2023/04/09 10:16:37;;;;;;;26.00;16.00;;;21.40;73.90;;;;;;5077413;28;20495;-60
2023/04/09 10:19:05;;;;;;;22.37;16.13;;;21.40;74.50;;;;;;5076343;28;20490;-59
2023/04/09 10:21:38;;;;;;;20.70;14.53;;;21.30;74.20;;;;;;5072465;28;20449;-61
2023/04/09 10:24:06;;;;;;;21.87;15.50;;;21.20;73.80;;;;;;5074779;28;20443;-63
2023/04/09 10:26:34;;;;;;;22.30;14.80;;;21.10;74.80;;;;;;5075706;28;20430;-62
2023/04/09 10:29:13;;;;;;;21.23;14.60;;;21.10;74.20;;;;;;5077624;28;20477;-61
2023/04/09 10:31:48;;;;;;;21.67;15.43;;;20.90;76.20;;;;;;5077605;28;20420;-62
2023/04/09 10:34:16;;;;;;;22.23;16.10;;;20.60;75.70;;;;;;5075953;28;20463;-61
2023/04/09 10:36:44;;;;;;;23.00;15.13;;;20.20;75.40;;;;;;5074301;28;20447;-61
2023/04/09 10:39:14;;;;;;;26.57;16.40;;;19.90;79.50;;;;;;5075920;28;20463;-61
2023/04/09 10:41:42;;;;;;;22.50;14.87;;;19.80;79.30;;;;;;5077654;28;20470;-61
2023/04/09 10:44:25;;;;;;;24.50;15.70;;;19.70;80.30;;;;;;5077136;28;20471;-61
2023/04/09 10:46:55;;;;;;;21.37;14.33;;;19.30;81.70;;;;;;5076387;28;20428;-61
2023/04/09 10:49:25;;;;;;;18.70;14.33;;;19.20;83.10;;;;;;5075700;28;20454;-62
2023/04/09 10:51:52;;;;;;;21.17;14.23;;;19.20;83.60;;;;;;5075964;28;20462;-62
2023/04/09 10:54:45;;;;;;;20.37;14.17;;;19.20;84.30;;;;;;5075728;28;20469;-61
2023/04/09 10:57:14;;;;;;;22.60;13.67;;;19.00;85.60;;;;;;5074747;28;20435;-61
2023/04/09 10:59:47;;;;;;;21.60;15.37;;;18.70;85.70;;;;;;5075773;28;20471;-61
2023/04/09 11:02:50;;;;;;;24.03;14.57;;;18.40;88.30;;;;;;5075073;28;20761;-61
2023/04/09 11:05:27;;;;;;;22.87;14.37;;;18.00;90.20;;;;;;5071861;28;20485;-59
2023/04/09 11:07:58;;;;;;;21.60;14.23;;;17.70;91.30;;;;;;5074898;28;20427;-62
2023/04/09 11:10:28;;;;;;;22.03;14.53;;;17.60;91.70;;;;;;5074281;28;20470;-61
2023/04/09 11:12:55;;;;;;;23.93;16.13;;;17.20;93.20;;;;;;5075325;28;20443;-62
2023/04/09 11:15:23;;;;;;;22.50;14.30;;;17.20;93.60;;;;;;5074103;28;20491;-62
2023/04/09 11:17:50;;;;;;;21.80;13.90;;;17.00;95.10;;;;;;5075022;28;20447;-60
2023/04/09 11:20:22;;;;;;;22.10;13.37;;;16.80;97.10;;;;;;5073245;28;20471;-60
2023/04/09 11:22:50;;;;;;;21.53;13.33;;;16.90;97.30;;;;;;5074792;28;20470;-62
2023/04/09 11:25:22;;;;;;;20.13;13.57;;;16.70;96.70;;;;;;5073383;28;20466;-62
2023/04/09 11:27:52;;;;;;;27.97;13.80;;;16.60;99.10;;;;;;5072603;28;20443;-59
2023/04/09 11:30:29;;;;;;;21.77;13.07;;;16.50;99.10;;;;;;5075150;28;20435;-62
2023/04/09 11:32:56;;;;;;;21.97;13.10;;;16.30;98.90;;;;;;5075573;28;20442;-61
2023/04/09 11:35:24;;;;;;;20.67;12.70;;;16.20;99.60;;;;;;5075223;28;20497;-61
2023/04/09 11:37:52;;;;;;;19.90;13.10;;;16.10;99.90;;;;;;5074819;28;20496;-58
2023/04/09 11:40:20;;;;;;;19.80;12.90;;;15.90;99.90;;;;;;5073853;28;20479;-61
2023/04/09 11:42:50;;;;;;;20.10;13.17;;;15.90;99.90;;;;;;5074379;28;20827;-61
2023/04/09 11:45:17;;;;;;;19.90;12.33;;;15.90;99.90;;;;;;5074016;28;20459;-62
2023/04/09 11:47:47;;;;;;;23.33;12.80;;;15.80;99.90;;;;;;5074203;28;20451;-61
2023/04/09 11:50:16;;;;;;;20.40;13.43;;;15.70;99.90;;;;;;5073091;28;20463;-61
2023/04/09 11:52:47;;;;;;;16.10;12.00;;;15.60;99.90;;;;;;5072898;28;20451;-58
2023/04/09 11:55:23;;;;;;;18.60;12.03;;;15.60;99.90;;;;;;5073034;28;20502;-62
2023/04/09 11:57:52;;;;;;;19.67;12.47;;;15.50;99.90;;;;;;5074651;28;20452;-61
2023/04/09 12:00:20;;;;;;;19.67;12.07;;;15.50;99.90;;;;;;5073248;28;20471;-62
2023/04/09 12:02:49;;;;;;;19.17;12.70;;;15.40;99.90;;;;;;5073434;28;20465;-61
2023/04/09 12:05:23;;;;;;;22.00;13.70;;;15.50;99.90;;;;;;5074361;28;20535;-62
2023/04/09 12:07:50;;;;;;;16.93;11.10;;;15.50;99.90;;;;;;5075642;28;20462;-62
2023/04/09 12:10:17;;;;;;;19.63;11.83;;;15.40;99.90;;;;;;5078742;28;20443;-60
2023/04/09 12:12:46;;;;;;;19.10;13.20;;;15.20;99.90;;;;;;5078291;28;20451;-61
2023/04/09 12:15:20;;;;;;;22.30;12.33;;;15.20;99.90;;;;;;5078426;28;20475;-61
2023/04/09 12:17:54;;;;;;;18.60;11.50;;;15.00;99.90;;;;;;5078791;28;20411;-61
2023/04/09 12:20:28;;;;;;;17.77;11.30;;;14.90;99.90;;;;;;5078803;28;20404;-61
2023/04/09 12:22:56;;;;;;;17.00;11.83;;;14.90;99.90;;;;;;5077331;28;20457;-62
2023/04/09 12:25:23;;;;;;;17.77;12.07;;;14.80;99.90;;;;;;5078192;28;20436;-60
2023/04/09 12:27:49;;;;;;;20.27;12.63;;;14.70;99.90;;;;;;5079019;28;20435;-60
2023/04/09 12:30:19;;;;;;;21.93;12.00;;;14.80;99.90;;;;;;5078462;28;20475;-61
2023/04/09 12:32:47;;;;;;;18.60;11.87;;;14.90;99.90;;;;;;5074663;28;20428;-61
2023/04/09 12:35:18;;;;;;;20.40;12.63;;;14.90;99.90;;;;;;5079227;28;20542;-59
2023/04/09 12:37:46;;;;;;;18.73;11.23;;;14.80;99.90;;;;;;5076296;28;20455;-62
2023/04/09 12:40:13;;;;;;;19.50;11.70;;;14.90;99.90;;;;;;5078415;28;20443;-62
2023/04/09 12:42:40;;;;;;;21.13;12.40;;;14.90;99.90;;;;;;5077456;28;20507;-64